Ro Fjord — LFEI — position and weather

sailwx.info

Track history (hours):
 
Tides and Currents Weather Stations Pressure Air Temp Water Temp Dewpoint Dewpoint Depression Visibility Wind Speed Wind Dir Waves Ship Positions

Ro Fjord

Last reported at 2016-Dec-05 10:26 UTC. Time now 2016-Dec-09 05:49 UTC.
Position N 59°17' E 005°20'.

Length 72 m; draft 6.5 m.

Type: Cargo ship. MMSI: 257430000.

Date/timePositionNaut miles runAvg speedWind from/ knotsBaromVisibWave heightAir tempDewpointWater temp
2016-Dec-05 10:26N 59°17' E 005°20'8 9.6
2016-Dec-05 09:33N 59°09' E 005°24'11 2.5
2016-Dec-05 05:16N 59°17' E 005°38'0 0.0
2016-Dec-05 04:28N 59°17' E 005°38'4 4.0
2016-Dec-05 03:32N 59°14' E 005°35'8 8.1
2016-Dec-05 02:34N 59°11' E 005°21'203 4.4
2016-Dec-03 04:31N 62°33' E 006°09'0 0.0
2016-Dec-03 03:33N 62°33' E 006°09'0 0.3
2016-Dec-03 02:33N 62°33' E 006°09'3 3.0
2016-Dec-03 01:33N 62°30' E 006°08'6 5.6
2016-Dec-03 00:30N 62°26' E 005°58'11 3.5
2016-Dec-02 21:19N 62°19' E 005°39'0 0.0
2016-Dec-02 20:32N 62°19' E 005°39'0 0.0
2016-Dec-02 19:33N 62°19' E 005°39'0 0.0
2016-Dec-02 18:33N 62°19' E 005°39'0 0.0
2016-Dec-02 17:33N 62°19' E 005°39'0 0.0
2016-Dec-02 16:32N 62°19' E 005°39'0 0.0
2016-Dec-02 15:33N 62°19' E 005°39'0 0.0
2016-Dec-02 14:33N 62°19' E 005°39'0 0.0
2016-Dec-02 13:33N 62°19' E 005°39'0 0.0
2016-Dec-02 12:32N 62°19' E 005°39'0 0.0
2016-Dec-02 11:33N 62°19' E 005°39'0 0.0
2016-Dec-02 10:32N 62°19' E 005°39'9 9.5
2016-Dec-02 09:33N 62°16' E 005°20'6 5.9
2016-Dec-02 08:32N 62°14' E 005°08'4 4.3
2016-Dec-02 07:32N 62°10' E 005°03'5 4.8
2016-Dec-02 06:31N 62°06' E 005°06'6 6.1
2016-Dec-02 05:32N 62°00' E 005°10'6 6.0
2016-Dec-02 04:33N 61°54' E 005°08'14 4.6
2016-Dec-02 01:33N 61°41' E 004°58'5926.0
2016-Dec-01 23:16N 62°30' E 006°09'4 5.5
2016-Dec-01 22:33N 62°28' E 006°03'6 6.3
2016-Dec-01 21:33N 62°25' E 005°51'7 6.8
2016-Dec-01 20:33N 62°19' E 005°42'1 1.4
2016-Dec-01 19:32N 62°19' E 005°39'19 4.3
2016-Dec-01 15:12N 62°32' E 006°09'4 6.4
2016-Dec-01 14:33N 62°35' E 006°14'6 6.0
2016-Dec-01 13:33N 62°40' E 006°22'0 0.5
2016-Dec-01 12:33N 62°40' E 006°21'0 0.0
2016-Dec-01 11:32N 62°40' E 006°21'12 5.9
2016-Dec-01 09:25N 62°30' E 006°08'15 7.8
2016-Dec-01 07:32N 62°20' E 005°45'3 2.6
2016-Dec-01 06:33N 62°19' E 005°39'186186.4
2016-Dec-01 05:34N 59°13' E 005°21'6 6.1
2016-Dec-01 04:33N 59°10' E 005°31'7 7.4
2016-Dec-01 03:34N 59°17' E 005°38'0 0.0
2016-Dec-01 02:33N 59°17' E 005°38'197194.6
2016-Dec-01 01:32N 62°33' E 006°10'6 6.2
2016-Dec-01 00:33N 62°37' E 006°19'3 3.2
2016-Nov-30 23:33N 62°40' E 006°21'0 0.0
2016-Nov-30 22:33N 62°40' E 006°21'0 0.0
2016-Nov-30 21:33N 62°40' E 006°21'0 0.0
2016-Nov-30 20:33N 62°40' E 006°21'204205.8
2016-Nov-30 19:33N 59°17' E 005°38'5 5.4
2016-Nov-30 18:33N 59°12' E 005°36'8 7.8
2016-Nov-30 17:33N 59°12' E 005°20'198194.6
2016-Nov-30 16:32N 62°29' E 006°09'0 0.1
2016-Nov-30 15:33N 62°29' E 006°09'1 0.5
2016-Nov-30 14:33N 62°29' E 006°09'2 2.1
2016-Nov-30 13:33N 62°30' E 006°05'1 0.5
2016-Nov-30 12:33N 62°29' E 006°05'4 4.2
2016-Nov-30 11:32N 62°26' E 005°59'7 7.1
2016-Nov-30 10:33N 62°22' E 005°47'4 4.1
2016-Nov-30 09:33N 62°19' E 005°41'0 0.0
2016-Nov-30 08:33N 62°19' E 005°41'0 0.0
2016-Nov-30 07:33N 62°19' E 005°41'1 0.5
2016-Nov-30 06:33N 62°19' E 005°39'0 0.0
2016-Nov-30 05:33N 62°19' E 005°39'0 0.3
2016-Nov-30 04:33N 62°19' E 005°40'7 6.6
2016-Nov-30 03:33N 62°17' E 005°26'6 6.3
2016-Nov-30 02:33N 62°15' E 005°14'7 6.5
2016-Nov-30 01:33N 62°10' E 005°04'7 6.6
2016-Nov-30 00:34N 62°04' E 005°07'7 7.3
2016-Nov-29 23:33N 61°57' E 005°08'4 3.6
2016-Nov-29 22:33N 61°54' E 005°04'2020.4
2016-Nov-29 21:33N 62°14' E 005°12'8 8.0
2016-Nov-29 20:33N 62°12' E 005°29'9 8.6
2016-Nov-29 19:34N 62°19' E 005°40'0 0.2
2016-Nov-29 18:34N 62°19' E 005°39'0 0.0
2016-Nov-29 17:34N 62°19' E 005°39'0 0.0
2016-Nov-29 16:33N 62°19' E 005°39'0 0.0
2016-Nov-29 15:34N 62°19' E 005°39'0 0.0
2016-Nov-29 14:34N 62°19' E 005°39'0 0.0
2016-Nov-29 13:34N 62°19' E 005°39'0 0.0
2016-Nov-29 12:33N 62°19' E 005°39'6 6.2
2016-Nov-29 11:33N 62°24' E 005°49'1918.9
2016-Nov-29 10:33N 62°13' E 005°15'5 4.5
2016-Nov-29 09:33N 62°12' E 005°05'5 5.2
2016-Nov-29 08:33N 62°07' E 005°05'6 6.3
2016-Nov-29 07:32N 62°01' E 005°09'6 6.3
2016-Nov-29 06:33N 61°55' E 005°07'2 2.0
2016-Nov-29 05:33N 61°54' E 005°04'3333.0
2016-Nov-29 04:34N 62°20' E 005°45'3 2.6
2016-Nov-29 03:34N 62°19' E 005°39'0 0.1
2016-Nov-29 02:33N 62°19' E 005°39'8 7.6
2016-Nov-29 01:33N 62°25' E 005°51'2929.4
2016-Nov-29 00:33N 62°03' E 005°08'8 8.3
2016-Nov-28 23:33N 62°12' E 005°03'6 5.5
2016-Nov-28 22:33N 62°13' E 005°14'4141.5
2016-Nov-28 21:33N 62°40' E 006°21'3230.8
2016-Nov-28 20:32N 62°18' E 005°34'1212.1
2016-Nov-28 19:34N 62°26' E 005°53'9 8.9
2016-Nov-28 18:34N 62°19' E 005°39'0 0.0
2016-Nov-28 17:34N 62°19' E 005°39'5 5.4
2016-Nov-28 16:34N 62°23' E 005°47'5 5.5
2016-Nov-28 15:33N 62°19' E 005°39'0 0.0
2016-Nov-28 14:33N 62°19' E 005°39'2928.8
2016-Nov-28 13:34N 62°40' E 006°21'0 0.0
2016-Nov-28 12:33N 62°40' E 006°21'0 0.0
2016-Nov-28 11:34N 62°40' E 006°21'2928.6
2016-Nov-28 10:33N 62°19' E 005°39'0 0.0
2016-Nov-28 09:33N 62°19' E 005°39'0 0.0
2016-Nov-28 08:33N 62°19' E 005°39'0 0.0
2016-Nov-28 07:33N 62°19' E 005°39'0 0.0
2016-Nov-28 06:33N 62°19' E 005°39'0 0.0
2016-Nov-28 05:33N 62°19' E 005°39'2 2.5
2016-Nov-28 04:33N 62°19' E 005°45'2 1.8
2016-Nov-28 03:34N 62°19' E 005°41'0 0.0
2016-Nov-28 02:34N 62°19' E 005°41'1 0.5
2016-Nov-28 01:33N 62°19' E 005°39'0 0.2
2016-Nov-28 00:34N 62°19' E 005°40'9 9.3
2016-Nov-27 23:33N 62°17' E 005°21'9 9.0
2016-Nov-27 22:33N 62°19' E 005°39'0 0.0
2016-Nov-27 21:33N 62°19' E 005°39'0 0.0
2016-Nov-27 20:33N 62°19' E 005°39'0 0.0
2016-Nov-27 19:32N 62°19' E 005°39'0 0.0
2016-Nov-27 18:33N 62°19' E 005°39'0 0.0
2016-Nov-27 17:33N 62°19' E 005°39'5 2.6
2016-Nov-27 15:34N 62°16' E 005°31'5 5.2
2016-Nov-27 14:34N 62°19' E 005°39'3 3.3
2016-Nov-27 13:34N 62°18' E 005°33'9 7.3
2016-Nov-27 12:17N 62°12' E 005°18'5 6.9
2016-Nov-27 11:34N 62°13' E 005°08'1616.3
2016-Nov-27 10:33N 61°56' E 005°08'6 5.8
2016-Nov-27 09:32N 61°52' E 005°16'9 6.6
2016-Nov-27 08:12N 61°46' E 005°02'4 6.8
2016-Nov-27 07:33N 61°42' E 004°58'7 6.5
2016-Nov-27 06:32N 61°35' E 004°57'7 6.4
2016-Nov-27 05:22N 61°28' E 004°59'4625.3
2016-Nov-27 03:34N 62°13' E 005°15'7 7.2
2016-Nov-27 02:33N 62°14' E 005°31'7 7.1
2016-Nov-27 01:34N 62°19' E 005°39'0 0.0
2016-Nov-27 00:34N 62°19' E 005°39'0 0.0
2016-Nov-26 23:34N 62°19' E 005°39'0 0.0
2016-Nov-26 22:33N 62°19' E 005°39'0 0.0
2016-Nov-26 21:34N 62°19' E 005°39'0 0.0
2016-Nov-26 20:34N 62°19' E 005°39'0 0.0
2016-Nov-26 19:34N 62°19' E 005°39'0 0.0
2016-Nov-26 18:34N 62°19' E 005°39'0 0.0
2016-Nov-26 17:34N 62°19' E 005°39'0 0.0
2016-Nov-26 16:34N 62°19' E 005°39'0 0.0
2016-Nov-26 15:34N 62°19' E 005°39'0 0.1
2016-Nov-26 14:34N 62°19' E 005°39'0 0.0
2016-Nov-26 13:34N 62°19' E 005°39'0 0.0
2016-Nov-26 12:34N 62°19' E 005°39'0 0.0
2016-Nov-26 11:34N 62°19' E 005°39'0 0.0
2016-Nov-26 10:34N 62°19' E 005°39'0 0.0
2016-Nov-26 09:34N 62°19' E 005°39'0 0.0
2016-Nov-26 08:34N 62°19' E 005°39'0 0.0
2016-Nov-26 07:34N 62°19' E 005°39'2 1.8
2016-Nov-26 06:34N 62°18' E 005°36'11 8.4
2016-Nov-26 05:18N 62°10' E 005°21'810.4
2016-Nov-26 04:33N 62°08' E 005°05'4 4.2
2016-Nov-26 03:33N 62°12' E 005°04'4 4.1
2016-Nov-26 02:33N 62°13' E 005°13'6 6.1
2016-Nov-26 01:33N 62°11' E 005°25'6 6.1
2016-Nov-26 00:32N 62°17' E 005°31'5 4.5
2016-Nov-25 23:32N 62°19' E 005°39'0 0.0
2016-Nov-25 22:33N 62°19' E 005°39'0 0.0
2016-Nov-25 21:33N 62°19' E 005°39'10 4.7
2016-Nov-25 19:23N 62°26' E 005°56'6 6.7
2016-Nov-25 18:33N 62°29' E 006°06'3 3.5
2016-Nov-25 17:34N 62°32' E 006°09'1 0.8
2016-Nov-25 16:33N 62°33' E 006°09'  
Track history (hours):
 
Tides and Currents Weather Stations Pressure Air Temp Water Temp Dewpoint Dewpoint Depression Visibility Wind Speed Wind Dir Waves Ship Positions

Ro Fjord

Last reported at 2016-Dec-05 10:26 UTC. Time now 2016-Dec-09 05:49 UTC.
Position N 59°17' E 005°20'.

Length 72 m; draft 6.5 m.

Type: Cargo ship. MMSI: 257430000.

Date/timePositionNaut miles runAvg speedWind from/ knotsBaromVisibWave heightAir tempDewpointWater temp
2016-Dec-05 10:26N 59°17' E 005°20'8 9.6
2016-Dec-05 09:33N 59°09' E 005°24'11 2.5
2016-Dec-05 05:16N 59°17' E 005°38'0 0.0
2016-Dec-05 04:28N 59°17' E 005°38'4 4.0
2016-Dec-05 03:32N 59°14' E 005°35'8 8.1
2016-Dec-05 02:34N 59°11' E 005°21'203 4.4
2016-Dec-03 04:31N 62°33' E 006°09'0 0.0
2016-Dec-03 03:33N 62°33' E 006°09'0 0.3
2016-Dec-03 02:33N 62°33' E 006°09'3 3.0
2016-Dec-03 01:33N 62°30' E 006°08'6 5.6
2016-Dec-03 00:30N 62°26' E 005°58'11 3.5
2016-Dec-02 21:19N 62°19' E 005°39'0 0.0
2016-Dec-02 20:32N 62°19' E 005°39'0 0.0
2016-Dec-02 19:33N 62°19' E 005°39'0 0.0
2016-Dec-02 18:33N 62°19' E 005°39'0 0.0
2016-Dec-02 17:33N 62°19' E 005°39'0 0.0
2016-Dec-02 16:32N 62°19' E 005°39'0 0.0
2016-Dec-02 15:33N 62°19' E 005°39'0 0.0
2016-Dec-02 14:33N 62°19' E 005°39'0 0.0
2016-Dec-02 13:33N 62°19' E 005°39'0 0.0
2016-Dec-02 12:32N 62°19' E 005°39'0 0.0
2016-Dec-02 11:33N 62°19' E 005°39'0 0.0
2016-Dec-02 10:32N 62°19' E 005°39'9 9.5
2016-Dec-02 09:33N 62°16' E 005°20'6 5.9
2016-Dec-02 08:32N 62°14' E 005°08'4 4.3
2016-Dec-02 07:32N 62°10' E 005°03'5 4.8
2016-Dec-02 06:31N 62°06' E 005°06'6 6.1
2016-Dec-02 05:32N 62°00' E 005°10'6 6.0
2016-Dec-02 04:33N 61°54' E 005°08'14 4.6
2016-Dec-02 01:33N 61°41' E 004°58'5926.0
2016-Dec-01 23:16N 62°30' E 006°09'4 5.5
2016-Dec-01 22:33N 62°28' E 006°03'6 6.3
2016-Dec-01 21:33N 62°25' E 005°51'7 6.8
2016-Dec-01 20:33N 62°19' E 005°42'1 1.4
2016-Dec-01 19:32N 62°19' E 005°39'19 4.3
2016-Dec-01 15:12N 62°32' E 006°09'4 6.4
2016-Dec-01 14:33N 62°35' E 006°14'6 6.0
2016-Dec-01 13:33N 62°40' E 006°22'0 0.5
2016-Dec-01 12:33N 62°40' E 006°21'0 0.0
2016-Dec-01 11:32N 62°40' E 006°21'12 5.9
2016-Dec-01 09:25N 62°30' E 006°08'15 7.8
2016-Dec-01 07:32N 62°20' E 005°45'3 2.6
2016-Dec-01 06:33N 62°19' E 005°39'186186.4
2016-Dec-01 05:34N 59°13' E 005°21'6 6.1
2016-Dec-01 04:33N 59°10' E 005°31'7 7.4
2016-Dec-01 03:34N 59°17' E 005°38'0 0.0
2016-Dec-01 02:33N 59°17' E 005°38'197194.6
2016-Dec-01 01:32N 62°33' E 006°10'6 6.2
2016-Dec-01 00:33N 62°37' E 006°19'3 3.2
2016-Nov-30 23:33N 62°40' E 006°21'0 0.0
2016-Nov-30 22:33N 62°40' E 006°21'0 0.0
2016-Nov-30 21:33N 62°40' E 006°21'0 0.0
2016-Nov-30 20:33N 62°40' E 006°21'204205.8
2016-Nov-30 19:33N 59°17' E 005°38'5 5.4
2016-Nov-30 18:33N 59°12' E 005°36'8 7.8
2016-Nov-30 17:33N 59°12' E 005°20'198194.6
2016-Nov-30 16:32N 62°29' E 006°09'0 0.1
2016-Nov-30 15:33N 62°29' E 006°09'1 0.5
2016-Nov-30 14:33N 62°29' E 006°09'2 2.1
2016-Nov-30 13:33N 62°30' E 006°05'1 0.5
2016-Nov-30 12:33N 62°29' E 006°05'4 4.2
2016-Nov-30 11:32N 62°26' E 005°59'7 7.1
2016-Nov-30 10:33N 62°22' E 005°47'4 4.1
2016-Nov-30 09:33N 62°19' E 005°41'0 0.0
2016-Nov-30 08:33N 62°19' E 005°41'0 0.0
2016-Nov-30 07:33N 62°19' E 005°41'1 0.5
2016-Nov-30 06:33N 62°19' E 005°39'0 0.0
2016-Nov-30 05:33N 62°19' E 005°39'0 0.3
2016-Nov-30 04:33N 62°19' E 005°40'7 6.6
2016-Nov-30 03:33N 62°17' E 005°26'6 6.3
2016-Nov-30 02:33N 62°15' E 005°14'7 6.5
2016-Nov-30 01:33N 62°10' E 005°04'7 6.6
2016-Nov-30 00:34N 62°04' E 005°07'7 7.3
2016-Nov-29 23:33N 61°57' E 005°08'4 3.6
2016-Nov-29 22:33N 61°54' E 005°04'2020.4
2016-Nov-29 21:33N 62°14' E 005°12'8 8.0
2016-Nov-29 20:33N 62°12' E 005°29'9 8.6
2016-Nov-29 19:34N 62°19' E 005°40'0 0.2
2016-Nov-29 18:34N 62°19' E 005°39'0 0.0
2016-Nov-29 17:34N 62°19' E 005°39'0 0.0
2016-Nov-29 16:33N 62°19' E 005°39'0 0.0
2016-Nov-29 15:34N 62°19' E 005°39'0 0.0
2016-Nov-29 14:34N 62°19' E 005°39'0 0.0
2016-Nov-29 13:34N 62°19' E 005°39'0 0.0
2016-Nov-29 12:33N 62°19' E 005°39'6 6.2
2016-Nov-29 11:33N 62°24' E 005°49'1918.9
2016-Nov-29 10:33N 62°13' E 005°15'5 4.5
2016-Nov-29 09:33N 62°12' E 005°05'5 5.2
2016-Nov-29 08:33N 62°07' E 005°05'6 6.3
2016-Nov-29 07:32N 62°01' E 005°09'6 6.3
2016-Nov-29 06:33N 61°55' E 005°07'2 2.0
2016-Nov-29 05:33N 61°54' E 005°04'3333.0
2016-Nov-29 04:34N 62°20' E 005°45'3 2.6
2016-Nov-29 03:34N 62°19' E 005°39'0 0.1
2016-Nov-29 02:33N 62°19' E 005°39'8 7.6
2016-Nov-29 01:33N 62°25' E 005°51'2929.4
2016-Nov-29 00:33N 62°03' E 005°08'8 8.3
2016-Nov-28 23:33N 62°12' E 005°03'6 5.5
2016-Nov-28 22:33N 62°13' E 005°14'4141.5
2016-Nov-28 21:33N 62°40' E 006°21'3230.8
2016-Nov-28 20:32N 62°18' E 005°34'1212.1
2016-Nov-28 19:34N 62°26' E 005°53'9 8.9
2016-Nov-28 18:34N 62°19' E 005°39'0 0.0
2016-Nov-28 17:34N 62°19' E 005°39'5 5.4
2016-Nov-28 16:34N 62°23' E 005°47'5 5.5
2016-Nov-28 15:33N 62°19' E 005°39'0 0.0
2016-Nov-28 14:33N 62°19' E 005°39'2928.8
2016-Nov-28 13:34N 62°40' E 006°21'0 0.0
2016-Nov-28 12:33N 62°40' E 006°21'0 0.0
2016-Nov-28 11:34N 62°40' E 006°21'2928.6
2016-Nov-28 10:33N 62°19' E 005°39'0 0.0
2016-Nov-28 09:33N 62°19' E 005°39'0 0.0
2016-Nov-28 08:33N 62°19' E 005°39'0 0.0
2016-Nov-28 07:33N 62°19' E 005°39'0 0.0
2016-Nov-28 06:33N 62°19' E 005°39'0 0.0
2016-Nov-28 05:33N 62°19' E 005°39'2 2.5
2016-Nov-28 04:33N 62°19' E 005°45'2 1.8
2016-Nov-28 03:34N 62°19' E 005°41'0 0.0
2016-Nov-28 02:34N 62°19' E 005°41'1 0.5
2016-Nov-28 01:33N 62°19' E 005°39'0 0.2
2016-Nov-28 00:34N 62°19' E 005°40'9 9.3
2016-Nov-27 23:33N 62°17' E 005°21'9 9.0
2016-Nov-27 22:33N 62°19' E 005°39'0 0.0
2016-Nov-27 21:33N 62°19' E 005°39'0 0.0
2016-Nov-27 20:33N 62°19' E 005°39'0 0.0
2016-Nov-27 19:32N 62°19' E 005°39'0 0.0
2016-Nov-27 18:33N 62°19' E 005°39'0 0.0
2016-Nov-27 17:33N 62°19' E 005°39'5 2.6
2016-Nov-27 15:34N 62°16' E 005°31'5 5.2
2016-Nov-27 14:34N 62°19' E 005°39'3 3.3
2016-Nov-27 13:34N 62°18' E 005°33'9 7.3
2016-Nov-27 12:17N 62°12' E 005°18'5 6.9
2016-Nov-27 11:34N 62°13' E 005°08'1616.3
2016-Nov-27 10:33N 61°56' E 005°08'6 5.8
2016-Nov-27 09:32N 61°52' E 005°16'9 6.6
2016-Nov-27 08:12N 61°46' E 005°02'4 6.8
2016-Nov-27 07:33N 61°42' E 004°58'7 6.5
2016-Nov-27 06:32N 61°35' E 004°57'7 6.4
2016-Nov-27 05:22N 61°28' E 004°59'4625.3
2016-Nov-27 03:34N 62°13' E 005°15'7 7.2
2016-Nov-27 02:33N 62°14' E 005°31'7 7.1
2016-Nov-27 01:34N 62°19' E 005°39'0 0.0
2016-Nov-27 00:34N 62°19' E 005°39'0 0.0
2016-Nov-26 23:34N 62°19' E 005°39'0 0.0
2016-Nov-26 22:33N 62°19' E 005°39'0 0.0
2016-Nov-26 21:34N 62°19' E 005°39'0 0.0
2016-Nov-26 20:34N 62°19' E 005°39'0 0.0
2016-Nov-26 19:34N 62°19' E 005°39'0 0.0
2016-Nov-26 18:34N 62°19' E 005°39'0 0.0
2016-Nov-26 17:34N 62°19' E 005°39'0 0.0
2016-Nov-26 16:34N 62°19' E 005°39'0 0.0
2016-Nov-26 15:34N 62°19' E 005°39'0 0.1
2016-Nov-26 14:34N 62°19' E 005°39'0 0.0
2016-Nov-26 13:34N 62°19' E 005°39'0 0.0
2016-Nov-26 12:34N 62°19' E 005°39'0 0.0
2016-Nov-26 11:34N 62°19' E 005°39'0 0.0
2016-Nov-26 10:34N 62°19' E 005°39'0 0.0
2016-Nov-26 09:34N 62°19' E 005°39'0 0.0
2016-Nov-26 08:34N 62°19' E 005°39'0 0.0
2016-Nov-26 07:34N 62°19' E 005°39'2 1.8
2016-Nov-26 06:34N 62°18' E 005°36'11 8.4
2016-Nov-26 05:18N 62°10' E 005°21'810.4
2016-Nov-26 04:33N 62°08' E 005°05'4 4.2
2016-Nov-26 03:33N 62°12' E 005°04'4 4.1
2016-Nov-26 02:33N 62°13' E 005°13'6 6.1
2016-Nov-26 01:33N 62°11' E 005°25'6 6.1
2016-Nov-26 00:32N 62°17' E 005°31'5 4.5
2016-Nov-25 23:32N 62°19' E 005°39'0 0.0
2016-Nov-25 22:33N 62°19' E 005°39'0 0.0
2016-Nov-25 21:33N 62°19' E 005°39'10 4.7
2016-Nov-25 19:23N 62°26' E 005°56'6 6.7
2016-Nov-25 18:33N 62°29' E 006°06'3 3.5
2016-Nov-25 17:34N 62°32' E 006°09'1 0.8
2016-Nov-25 16:33N 62°33' E 006°09'  

Dump ship's entire track history